createdAt,value
2018-06-16T00:01:56.494Z,9.80
2018-06-16T00:04:31.128Z,9.90
2018-06-16T00:07:05.949Z,10.47
2018-06-16T00:09:40.501Z,11.80
2018-06-16T00:12:15.220Z,11.07
2018-06-16T00:14:49.939Z,12.10
2018-06-16T00:17:24.501Z,10.97
2018-06-16T00:19:59.427Z,9.67
2018-06-16T00:22:33.844Z,9.93
2018-06-16T00:25:08.422Z,13.43
2018-06-16T00:27:43.387Z,12.43
2018-06-16T00:30:17.735Z,12.50
2018-06-16T00:32:53.075Z,11.10
2018-06-16T00:35:28.451Z,11.77
2018-06-16T00:38:02.738Z,10.60
2018-06-16T00:40:37.490Z,12.07
2018-06-16T00:43:12.168Z,10.27
2018-06-16T00:45:46.865Z,12.27
2018-06-16T00:48:21.823Z,8.47
2018-06-16T00:50:56.337Z,22.17
2018-06-16T00:53:31.843Z,9.70
2018-06-16T00:56:06.603Z,14.90
2018-06-16T00:58:41.630Z,11.50
2018-06-16T01:01:15.736Z,8.63
2018-06-16T01:03:50.619Z,8.07
2018-06-16T01:06:24.842Z,8.80
2018-06-16T01:08:59.556Z,11.47
2018-06-16T01:11:34.003Z,9.13
2018-06-16T01:14:08.604Z,9.40
2018-06-16T01:16:43.423Z,8.23
2018-06-16T01:19:18.002Z,12.00
2018-06-16T01:21:53.058Z,7.03
2018-06-16T01:24:27.370Z,11.03
2018-06-16T01:27:01.996Z,7.50
2018-06-16T01:29:36.483Z,9.17
2018-06-16T01:32:11.006Z,8.90
2018-06-16T01:34:45.545Z,7.47
2018-06-16T01:37:20.049Z,8.63
2018-06-16T01:39:54.578Z,13.93
2018-06-16T01:42:29.227Z,7.00
2018-06-16T01:45:04.230Z,8.27
2018-06-16T01:47:38.468Z,7.63
2018-06-16T01:50:13.669Z,8.00
2018-06-16T01:52:48.000Z,10.30
2018-06-16T01:55:22.918Z,11.83
2018-06-16T01:57:57.626Z,7.80
2018-06-16T02:00:32.086Z,8.30
2018-06-16T02:03:06.765Z,8.40
2018-06-16T02:05:41.071Z,8.20
2018-06-16T02:08:15.862Z,6.63
2018-06-16T02:10:50.330Z,8.03
2018-06-16T02:13:24.926Z,8.63
2018-06-16T02:15:59.935Z,8.00
2018-06-16T02:18:34.351Z,10.70
2018-06-16T02:21:09.004Z,7.73
2018-06-16T02:23:43.712Z,7.17
2018-06-16T02:26:18.531Z,7.23
2018-06-16T02:28:53.211Z,9.23
2018-06-16T02:31:28.681Z,8.23
2018-06-16T02:34:03.594Z,7.20
2018-06-16T02:36:38.481Z,6.93
2018-06-16T02:39:13.237Z,8.60
2018-06-16T02:41:47.637Z,7.27
2018-06-16T02:44:22.280Z,9.60
2018-06-16T02:46:56.962Z,7.13
2018-06-16T02:49:31.623Z,6.93
2018-06-16T02:52:06.550Z,7.20
2018-06-16T02:54:41.093Z,6.87
2018-06-16T02:57:15.991Z,7.30
2018-06-16T02:59:50.618Z,5.63
2018-06-16T03:02:25.442Z,14.30
2018-06-16T03:05:00.104Z,6.70
2018-06-16T03:07:34.777Z,6.83
2018-06-16T03:10:09.421Z,8.33
2018-06-16T03:12:44.502Z,9.83
2018-06-16T03:15:19.415Z,9.73
2018-06-16T03:17:54.484Z,7.87
2018-06-16T03:20:28.991Z,8.10
2018-06-16T03:23:04.023Z,8.63
2018-06-16T03:25:38.202Z,8.13
2018-06-16T03:28:13.640Z,8.40
2018-06-16T03:30:48.320Z,7.40
2018-06-16T03:33:23.644Z,8.70
2018-06-16T03:35:57.680Z,7.23
2018-06-16T03:38:32.301Z,7.70
2018-06-16T03:41:06.902Z,10.83
2018-06-16T03:43:41.820Z,7.60
2018-06-16T03:46:16.134Z,8.47
2018-06-16T03:48:50.806Z,8.63
2018-06-16T03:51:25.487Z,7.50
2018-06-16T03:54:00.213Z,6.70
2018-06-16T03:56:35.057Z,7.23
2018-06-16T03:59:09.906Z,9.90
2018-06-16T04:01:44.233Z,10.40
2018-06-16T04:04:19.055Z,7.47
2018-06-16T04:06:53.755Z,7.20
2018-06-16T04:09:28.475Z,7.00
2018-06-16T04:12:03.039Z,7.77
2018-06-16T04:14:37.982Z,8.20
2018-06-16T04:17:17.125Z,6.87
2018-06-16T04:19:52.653Z,8.80
2018-06-16T04:22:26.865Z,8.97
2018-06-16T04:25:01.919Z,7.10
2018-06-16T04:27:36.218Z,6.70
2018-06-16T04:30:11.065Z,11.33
2018-06-16T04:32:45.423Z,6.43
2018-06-16T04:35:20.219Z,6.13
2018-06-16T04:37:54.901Z,8.77
2018-06-16T04:40:29.623Z,6.50
2018-06-16T04:43:04.339Z,10.13
2018-06-16T04:45:39.450Z,8.10
2018-06-16T04:48:13.704Z,7.27
2018-06-16T04:50:48.603Z,6.53
2018-06-16T04:53:22.918Z,9.00
2018-06-16T04:55:57.879Z,6.33
2018-06-16T04:58:32.174Z,6.87
2018-06-16T05:01:06.940Z,6.83
2018-06-16T05:03:41.614Z,5.80
2018-06-16T05:06:16.955Z,6.97
2018-06-16T05:08:51.016Z,6.37
2018-06-16T05:11:25.736Z,6.60
2018-06-16T05:14:00.467Z,5.90
2018-06-16T05:16:35.387Z,5.63
2018-06-16T05:19:09.580Z,5.77
2018-06-16T05:21:44.431Z,5.77
2018-06-16T05:24:18.984Z,6.60
2018-06-16T05:26:53.808Z,8.40
2018-06-16T05:29:28.110Z,5.17
2018-06-16T05:32:02.860Z,5.93
2018-06-16T05:34:37.676Z,3.87
2018-06-16T05:37:12.072Z,4.60
2018-06-16T05:39:46.670Z,5.50
2018-06-16T05:42:21.399Z,4.10
2018-06-16T05:44:57.036Z,4.30
2018-06-16T05:47:31.976Z,4.00
2018-06-16T05:50:06.705Z,4.17
2018-06-16T05:52:41.571Z,5.20
2018-06-16T05:55:16.319Z,3.80
2018-06-16T05:57:50.503Z,3.50
2018-06-16T06:00:25.298Z,4.20
2018-06-16T06:02:59.945Z,4.00
2018-06-16T06:05:34.601Z,4.03
2018-06-16T06:08:09.313Z,5.17
2018-06-16T06:10:44.293Z,3.70
2018-06-16T06:13:19.094Z,5.30
2018-06-16T06:15:53.213Z,4.47
2018-06-16T06:18:28.014Z,5.17
2018-06-16T06:21:02.488Z,4.17
2018-06-16T06:23:37.164Z,4.70
2018-06-16T06:26:11.701Z,3.90
2018-06-16T06:28:46.420Z,4.37
2018-06-16T06:31:20.928Z,4.17
2018-06-16T06:33:55.686Z,3.93
2018-06-16T06:36:31.899Z,9.00
2018-06-16T06:39:09.037Z,5.73
2018-06-16T06:41:43.710Z,5.47
2018-06-16T06:44:18.237Z,12.07
2018-06-16T06:46:52.951Z,5.00
2018-06-16T06:49:27.433Z,3.87
2018-06-16T06:52:01.878Z,3.37
2018-06-16T06:54:36.788Z,4.40
2018-06-16T06:57:11.258Z,4.77
2018-06-16T06:59:45.774Z,5.93
2018-06-16T07:02:20.457Z,3.23
2018-06-16T07:04:55.921Z,4.93
2018-06-16T07:07:30.113Z,3.17
2018-06-16T07:10:05.226Z,7.70
2018-06-16T07:12:39.388Z,5.07
2018-06-16T07:15:13.965Z,10.30
2018-06-16T07:17:48.556Z,6.70
2018-06-16T07:20:23.597Z,3.27
2018-06-16T07:22:58.414Z,3.57
2018-06-16T07:25:32.940Z,7.10
2018-06-16T07:28:07.353Z,7.33
2018-06-16T07:30:42.010Z,2.90
2018-06-16T07:33:16.468Z,6.03
2018-06-16T07:35:51.546Z,6.73
2018-06-16T07:38:25.741Z,7.83
2018-06-16T07:41:00.264Z,3.37
2018-06-16T07:43:35.200Z,4.13
2018-06-16T07:46:09.555Z,5.20
2018-06-16T07:48:44.677Z,4.93
2018-06-16T07:51:20.437Z,3.07
2018-06-16T07:53:55.652Z,3.90
2018-06-16T07:56:30.125Z,7.13
2018-06-16T07:59:04.803Z,3.70
2018-06-16T08:01:39.131Z,6.77
2018-06-16T08:04:13.843Z,5.47
2018-06-16T08:06:48.595Z,5.90
2018-06-16T08:09:22.942Z,6.13
2018-06-16T08:11:57.638Z,3.57
2018-06-16T08:14:32.233Z,3.43
2018-06-16T08:17:07.046Z,3.53
2018-06-16T08:19:41.498Z,4.93
2018-06-16T08:22:16.225Z,3.73
2018-06-16T08:24:50.640Z,5.43
2018-06-16T08:27:25.235Z,5.03
2018-06-16T08:29:59.677Z,5.60
2018-06-16T08:32:34.307Z,6.30
2018-06-16T08:35:09.153Z,7.03
2018-06-16T08:37:43.393Z,3.40
2018-06-16T08:40:18.078Z,5.57
2018-06-16T08:42:52.859Z,3.80
2018-06-16T08:45:27.430Z,9.23
2018-06-16T08:48:01.983Z,4.23
2018-06-16T08:50:36.764Z,5.93
2018-06-16T08:53:11.454Z,6.10
2018-06-16T08:55:46.145Z,4.57
2018-06-16T08:58:21.007Z,3.00
2018-06-16T09:00:55.595Z,6.57
2018-06-16T09:03:30.969Z,3.30
2018-06-16T09:06:05.861Z,5.10
2018-06-16T09:08:40.650Z,4.23
2018-06-16T09:11:15.328Z,2.77
2018-06-16T09:13:49.982Z,3.80
2018-06-16T09:16:25.156Z,4.00
2018-06-16T09:19:00.308Z,4.10
2018-06-16T09:21:34.970Z,2.80
2018-06-16T09:24:09.552Z,8.67
2018-06-16T09:26:44.213Z,5.10
2018-06-16T09:29:20.518Z,4.23
2018-06-16T09:31:55.478Z,3.23
2018-06-16T09:34:30.400Z,5.70
2018-06-16T09:37:04.827Z,2.83
2018-06-16T09:39:39.638Z,2.97
2018-06-16T09:42:14.432Z,2.83
2018-06-16T09:44:49.316Z,3.93
2018-06-16T09:47:23.699Z,4.07
2018-06-16T09:49:58.216Z,4.47
2018-06-16T09:52:33.192Z,4.47
2018-06-16T09:55:07.621Z,4.10
2018-06-16T09:57:42.245Z,4.50
2018-06-16T10:00:23.903Z,5.73
2018-06-16T10:02:58.332Z,4.30
2018-06-16T10:05:33.475Z,2.90
2018-06-16T10:08:08.171Z,3.50
2018-06-16T10:10:42.878Z,4.00
2018-06-16T10:13:17.398Z,3.83
2018-06-16T10:15:52.358Z,3.33
2018-06-16T10:18:26.550Z,5.03
2018-06-16T10:21:01.313Z,3.03
2018-06-16T10:23:35.794Z,4.70
2018-06-16T10:26:10.321Z,3.07
2018-06-16T10:28:45.055Z,3.30
2018-06-16T10:31:19.865Z,4.13
2018-06-16T10:33:56.643Z,5.07
2018-06-16T10:36:32.111Z,7.00
2018-06-16T10:39:07.999Z,9.20
2018-06-16T10:41:42.339Z,7.17
2018-06-16T10:44:17.104Z,4.10
2018-06-16T10:46:51.710Z,4.93
2018-06-16T10:49:26.164Z,2.90
2018-06-16T10:52:01.878Z,5.47
2018-06-16T10:54:36.443Z,6.47
2018-06-16T10:57:11.070Z,3.70
2018-06-16T10:59:45.779Z,4.83
2018-06-16T11:02:20.808Z,3.03
2018-06-16T11:04:55.353Z,5.00
2018-06-16T11:07:30.019Z,3.83
2018-06-16T11:10:04.422Z,4.10
2018-06-16T11:12:39.736Z,7.60
2018-06-16T11:15:14.514Z,5.17
2018-06-16T11:17:49.273Z,6.00
2018-06-16T11:20:23.686Z,3.60
2018-06-16T11:22:58.333Z,6.67
2018-06-16T11:25:32.821Z,3.37
2018-06-16T11:28:07.524Z,4.50
2018-06-16T11:30:42.239Z,4.67
2018-06-16T11:33:17.014Z,4.17
2018-06-16T11:35:51.583Z,3.50
2018-06-16T11:38:26.359Z,4.30
2018-06-16T11:41:01.073Z,3.67
2018-06-16T11:43:35.892Z,4.03
2018-06-16T11:46:10.229Z,3.97
2018-06-16T11:48:44.994Z,3.93
2018-06-16T11:51:19.584Z,4.77
2018-06-16T11:53:54.122Z,8.07
2018-06-16T11:56:28.945Z,4.63
2018-06-16T11:59:03.763Z,4.37
2018-06-16T12:01:38.303Z,4.50
2018-06-16T12:04:12.994Z,4.53
2018-06-16T12:06:47.724Z,3.40
2018-06-16T12:09:23.270Z,7.03
2018-06-16T12:11:58.193Z,6.40
2018-06-16T12:14:33.576Z,7.77
2018-06-16T12:17:08.581Z,6.03
2018-06-16T12:19:43.341Z,6.70
2018-06-16T12:22:18.418Z,4.80
2018-06-16T12:24:53.251Z,4.20
2018-06-16T12:27:27.413Z,7.57
2018-06-16T12:30:02.099Z,9.50
2018-06-16T12:32:36.764Z,5.53
2018-06-16T12:35:11.393Z,5.30
2018-06-16T12:37:46.145Z,6.80
2018-06-16T12:40:20.458Z,6.33
2018-06-16T12:42:55.006Z,3.70
2018-06-16T12:45:30.802Z,5.10
2018-06-16T12:48:05.422Z,3.40
2018-06-16T12:50:39.766Z,5.40
2018-06-16T12:53:14.939Z,3.90
2018-06-16T12:55:49.092Z,5.40
2018-06-16T12:58:23.750Z,4.90
2018-06-16T13:00:59.135Z,3.70
2018-06-16T13:03:35.478Z,3.23
2018-06-16T13:06:10.674Z,4.10
2018-06-16T13:08:45.062Z,5.50
2018-06-16T13:11:19.976Z,4.33
2018-06-16T13:13:54.663Z,5.33
2018-06-16T13:16:29.000Z,7.07
2018-06-16T13:19:03.449Z,5.43
2018-06-16T13:21:38.426Z,4.97
2018-06-16T13:24:13.552Z,4.50
2018-06-16T13:26:48.268Z,3.73
2018-06-16T13:29:23.729Z,4.27
2018-06-16T13:31:59.006Z,3.40
2018-06-16T13:34:34.547Z,4.50
2018-06-16T13:37:11.057Z,3.80
2018-06-16T13:39:45.984Z,4.03
2018-06-16T13:42:20.809Z,3.67
2018-06-16T13:44:55.493Z,3.57
2018-06-16T13:47:29.795Z,3.43
2018-06-16T13:50:04.518Z,4.13
2018-06-16T13:52:38.969Z,4.20
2018-06-16T13:55:14.355Z,3.93
2018-06-16T13:57:49.284Z,4.03
2018-06-16T14:00:25.235Z,5.37
2018-06-16T14:03:01.285Z,4.30
2018-06-16T14:05:35.793Z,3.80
2018-06-16T14:08:10.497Z,6.10
2018-06-16T14:10:44.911Z,3.60
2018-06-16T14:13:19.422Z,10.00
2018-06-16T14:15:54.140Z,6.07
2018-06-16T14:18:28.642Z,5.80
2018-06-16T14:21:03.496Z,4.27
2018-06-16T14:23:38.118Z,3.60
2018-06-16T14:26:12.935Z,5.63
2018-06-16T14:28:47.567Z,4.50
2018-06-16T14:31:22.594Z,4.23
2018-06-16T14:33:57.074Z,5.43
2018-06-16T14:36:32.362Z,4.87
2018-06-16T14:39:08.301Z,6.13
2018-06-16T14:41:42.877Z,7.67
2018-06-16T14:44:17.830Z,8.53
2018-06-16T14:46:52.354Z,4.80
2018-06-16T14:49:26.978Z,5.30
2018-06-16T14:52:02.239Z,5.33
2018-06-16T14:54:37.494Z,7.10
2018-06-16T14:57:11.956Z,5.80
2018-06-16T14:59:46.847Z,4.00
2018-06-16T15:02:21.563Z,8.20
2018-06-16T15:04:56.649Z,4.60
2018-06-16T15:07:31.089Z,6.03
2018-06-16T15:10:05.358Z,4.70
2018-06-16T15:12:40.000Z,6.17
2018-06-16T15:15:14.814Z,3.70
2018-06-16T15:17:49.334Z,4.27
2018-06-16T15:20:23.922Z,5.57
2018-06-16T15:22:58.662Z,4.40
2018-06-16T15:25:33.267Z,4.50
2018-06-16T15:28:07.812Z,4.70
2018-06-16T15:30:42.677Z,6.33
2018-06-16T15:33:17.248Z,4.17
2018-06-16T15:35:52.068Z,7.10
2018-06-16T15:38:26.369Z,14.90
2018-06-16T15:41:00.912Z,9.13
2018-06-16T15:43:35.421Z,5.27
2018-06-16T15:46:10.105Z,5.10
2018-06-16T15:48:44.676Z,8.40
2018-06-16T15:51:19.989Z,4.80
2018-06-16T15:53:55.389Z,4.20
2018-06-16T15:56:29.676Z,4.57
2018-06-16T15:59:04.327Z,4.90
2018-06-16T16:01:39.474Z,4.10
2018-06-16T16:04:14.058Z,7.90
2018-06-16T16:06:48.414Z,4.53
2018-06-16T16:09:22.845Z,4.57
2018-06-16T16:11:57.885Z,3.90
2018-06-16T16:14:32.363Z,7.13
2018-06-16T16:17:07.020Z,4.40
2018-06-16T16:19:41.451Z,4.10
2018-06-16T16:22:15.968Z,5.87
2018-06-16T16:24:50.754Z,5.23
2018-06-16T16:27:25.631Z,4.90
2018-06-16T16:30:00.143Z,5.00
2018-06-16T16:32:34.821Z,5.53
2018-06-16T16:35:09.569Z,5.47
2018-06-16T16:37:44.397Z,4.63
2018-06-16T16:40:19.179Z,4.50
2018-06-16T16:42:53.858Z,4.13
2018-06-16T16:45:28.560Z,6.53
2018-06-16T16:48:03.195Z,4.47
2018-06-16T16:50:37.865Z,11.10
2018-06-16T16:53:13.522Z,6.00
2018-06-16T16:55:48.434Z,6.37
2018-06-16T16:58:22.987Z,4.97
2018-06-16T17:00:57.495Z,5.33
2018-06-16T17:03:32.133Z,7.97
2018-06-16T17:06:06.647Z,5.67
2018-06-16T17:08:41.916Z,4.33
2018-06-16T17:11:17.261Z,4.57
2018-06-16T17:13:52.305Z,3.60
2018-06-16T17:16:27.337Z,5.07
2018-06-16T17:19:02.270Z,10.97
2018-06-16T17:21:36.905Z,3.90
2018-06-16T17:24:11.572Z,4.63
2018-06-16T17:26:46.061Z,4.60
2018-06-16T17:29:21.074Z,7.47
2018-06-16T17:31:55.310Z,7.20
2018-06-16T17:34:29.903Z,4.73
2018-06-16T17:37:04.688Z,6.67
2018-06-16T17:39:39.382Z,6.60
2018-06-16T17:42:14.001Z,8.20
2018-06-16T17:44:48.975Z,7.27
2018-06-16T17:47:23.638Z,8.93
2018-06-16T17:49:59.042Z,6.70
2018-06-16T17:52:33.790Z,4.70
2018-06-16T17:55:08.229Z,5.60
2018-06-16T17:57:42.702Z,6.80
2018-06-16T18:00:17.308Z,8.80
2018-06-16T18:02:51.590Z,6.23
2018-06-16T18:05:26.954Z,9.97
2018-06-16T18:08:02.576Z,5.37
2018-06-16T18:10:37.903Z,8.73
2018-06-16T18:13:12.153Z,24.87
2018-06-16T18:15:48.202Z,12.67
2018-06-16T18:18:22.594Z,9.57
2018-06-16T18:21:00.488Z,9.40
2018-06-16T18:23:36.342Z,9.20
2018-06-16T18:26:12.001Z,8.80
2018-06-16T18:28:46.841Z,10.53
2018-06-16T18:31:21.543Z,15.03
2018-06-16T18:33:55.842Z,10.50
2018-06-16T18:36:30.600Z,10.17
2018-06-16T18:39:09.475Z,10.80
2018-06-16T18:41:44.160Z,9.53
2018-06-16T18:44:19.668Z,8.90
2018-06-16T18:46:55.011Z,7.10
2018-06-16T18:49:29.778Z,9.10
2018-06-16T18:52:05.548Z,9.00
2018-06-16T18:54:42.231Z,6.47
2018-06-16T18:57:17.561Z,5.83
2018-06-16T18:59:54.576Z,6.00
2018-06-16T19:02:31.686Z,7.60
2018-06-16T19:05:08.757Z,5.83
2018-06-16T19:07:44.549Z,5.90
2018-06-16T19:10:20.176Z,6.80
2018-06-16T19:12:55.267Z,5.43
2018-06-16T19:15:30.487Z,5.60
2018-06-16T19:18:05.532Z,6.53
2018-06-16T19:20:40.800Z,9.37
2018-06-16T19:23:15.683Z,6.40
2018-06-16T19:25:51.581Z,7.87
2018-06-16T19:28:27.363Z,6.90
2018-06-16T19:31:02.301Z,5.80
2018-06-16T19:33:37.052Z,6.63
2018-06-16T19:36:12.129Z,6.23
2018-06-16T19:38:47.072Z,7.43
2018-06-16T19:41:21.650Z,17.10
2018-06-16T19:43:56.563Z,6.47
2018-06-16T19:46:31.423Z,10.97
2018-06-16T19:49:07.196Z,8.43
2018-06-16T19:51:42.399Z,7.90
2018-06-16T19:54:17.029Z,9.50
2018-06-16T19:56:51.777Z,7.17
2018-06-16T19:59:26.094Z,9.10
2018-06-16T20:02:00.927Z,6.70
2018-06-16T20:04:35.263Z,7.40
2018-06-16T20:07:10.112Z,7.00
2018-06-16T20:09:44.937Z,12.00
2018-06-16T20:12:20.722Z,10.13
2018-06-16T20:14:55.505Z,9.80
2018-06-16T20:17:30.271Z,10.00
2018-06-16T20:20:06.635Z,16.17
2018-06-16T20:22:40.932Z,12.77
2018-06-16T20:25:15.965Z,15.03
2018-06-16T20:27:50.513Z,12.23
2018-06-16T20:30:25.214Z,12.63
2018-06-16T20:32:59.893Z,11.37
2018-06-16T20:35:34.739Z,11.70
2018-06-16T20:38:09.541Z,12.63
2018-06-16T20:40:44.227Z,12.43
2018-06-16T20:43:19.116Z,10.87
2018-06-16T20:45:53.459Z,9.53
2018-06-16T20:48:27.984Z,11.97
2018-06-16T20:51:02.749Z,15.43
2018-06-16T20:53:37.360Z,13.30
2018-06-16T20:56:12.180Z,14.43
2018-06-16T20:58:47.084Z,12.97
2018-06-16T21:01:21.484Z,12.60
2018-06-16T21:03:57.157Z,16.13
2018-06-16T21:06:32.267Z,13.10
2018-06-16T21:09:09.634Z,20.40
2018-06-16T21:11:44.376Z,13.30
2018-06-16T21:14:19.519Z,13.83
2018-06-16T21:16:53.944Z,12.43
2018-06-16T21:19:28.658Z,19.50
2018-06-16T21:22:03.504Z,16.20
2018-06-16T21:24:38.017Z,17.17
2018-06-16T21:27:12.718Z,15.10
2018-06-16T21:29:47.327Z,14.97
2018-06-16T21:32:21.746Z,14.47
2018-06-16T21:34:56.272Z,15.33
2018-06-16T21:37:31.149Z,15.67
2018-06-16T21:40:06.026Z,13.77
2018-06-16T21:42:40.526Z,17.77
2018-06-16T21:45:15.213Z,17.10
2018-06-16T21:47:50.092Z,13.77
2018-06-16T21:50:24.816Z,14.53
2018-06-16T21:53:00.067Z,15.70
2018-06-16T21:55:35.077Z,15.20
2018-06-16T21:58:10.128Z,14.30
2018-06-16T22:00:44.323Z,16.90
2018-06-16T22:03:19.086Z,18.10
2018-06-16T22:05:53.686Z,16.07
2018-06-16T22:08:33.219Z,20.30
2018-06-16T22:11:07.996Z,17.37
2018-06-16T22:13:42.651Z,16.77
2018-06-16T22:16:17.262Z,17.17
2018-06-16T22:18:52.181Z,16.10
2018-06-16T22:21:26.482Z,16.17
2018-06-16T22:24:01.506Z,16.63
2018-06-16T22:26:35.818Z,21.63
2018-06-16T22:29:10.645Z,14.03
2018-06-16T22:31:45.349Z,16.83
2018-06-16T22:34:19.969Z,19.87
2018-06-16T22:36:54.811Z,20.50
2018-06-16T22:39:29.497Z,22.57
2018-06-16T22:42:04.009Z,16.00
2018-06-16T22:44:39.040Z,19.00
2018-06-16T22:47:13.182Z,17.30
2018-06-16T22:49:48.088Z,15.27
2018-06-16T22:52:22.754Z,16.93
2018-06-16T22:54:57.202Z,21.00
2018-06-16T22:57:31.886Z,17.07
2018-06-16T23:00:07.490Z,19.03
2018-06-16T23:02:42.480Z,15.93
2018-06-16T23:05:17.593Z,16.90
2018-06-16T23:07:52.970Z,18.00
2018-06-16T23:10:27.337Z,20.77
2018-06-16T23:13:01.472Z,18.23
2018-06-16T23:15:36.400Z,20.00
2018-06-16T23:18:10.869Z,20.40
2018-06-16T23:20:46.001Z,19.93
2018-06-16T23:23:20.203Z,20.77
2018-06-16T23:25:54.954Z,16.47
2018-06-16T23:28:29.391Z,17.13
2018-06-16T23:31:03.868Z,20.40
2018-06-16T23:33:39.637Z,18.47
2018-06-16T23:36:14.455Z,15.67
2018-06-16T23:38:48.983Z,16.50
2018-06-16T23:41:23.903Z,17.70
2018-06-16T23:43:58.627Z,17.63
2018-06-16T23:46:33.110Z,15.03
2018-06-16T23:49:08.143Z,13.60
2018-06-16T23:51:42.603Z,13.10
2018-06-16T23:54:17.128Z,15.30
2018-06-16T23:56:52.084Z,12.80
2018-06-16T23:59:26.671Z,10.67
